Accueil
METAR-TAF:

METAR-TAF

Aéroports :

Newberry, Caroline du Sud, États-Unis

latitude: 34-18-34N, longitude: 081-38-26W, altitude: 174 m

Observation

Le bulletin a été fait il y a 11 minutes, à 18:35 UTC
Vent calme
Température 5°C
Humidité 100%
Pression 1023 hPa
Visibilité: 4.8 km
Nuages épars à une hauteur de 2700 ft
Nuages fragmentés à une hauteur de 3600 ft
Ciel couvert à une hauteur de 4800 ft
pluie

METAR: KEOE 161835Z AUTO 00000KT 3SM RA SCT027 BKN036 OVC048 05/05 A3021 RMK AO2 P0008

Heure: 13:46 (18:46 UTC)


TAF: absent

Observations et prévisions météorologiques de plus de 4000 aéroports (messages METAR et TAF).

Les stations disponibles sont représentées par des disques jaunes et rouges sur la carte.

Passer la souris dessus pour voir le nom de la station.

Cliquer dessus pour voir les observations et prévisions météorologiques.

Pour changer de carte: cliquez sur les boutons verts avec une croix noire pour zoomer, sur le bouton vert avec un tiret pour effectuer un zoom arrière, ou sur les flèches vertes pour les cartes adjacentes.


METAR-TAF: